Terminal Aerodrome Forecast
Issued by NWS Goodland, KS

Home | Current Version | Previous Version | Text Only | Print | Product List | Glossary On
Versions: 1 2 3 4 5 6 7 8 9 10 11 12 13 14 15 16 17 18 19 20 21 22 23
597
FTUS43 KGLD 191720
TAFGLD
TAF
KGLD 191720Z 1918/2018 16017G25KT P6SM FEW250
     FM192000 15023G32KT P6SM SCT220
     FM201500 15018G27KT P6SM OVC050=

USA.gov is the U.S. government's official web portal to all federal, state and local government web resources and services.